Extreme weather reports worldwide

Snow

Station
 
Location
 
Name
 
Wind
Knots
Gust
Knots
Vis
SM
Temp/Dew
C
Baro
inHg
METAR
 
PAAD Deadhorse, US Point Thomson Airstrip 6 -3/-4 30.05 PAAD 250735Z AUTO 35006KT 10SM -SN BKN014 OVC021 M04/M05 A3005 RMK AO2 T10361048
YPO CYPO Peawanuck, CA Peawanuck Airport 6 5 -1/-3 30.03 CYPO 250744Z AUTO 09006KT 050V110 5SM -SN OVC008 M01/M03 A3003 RMK SLP176
YKL CYKL Schefferville, CA Schefferville Airport 5 3 -1/-1 29.84 CYKL 250706Z AUTO 06005KT 3SM -SN OVC008 M01/M01 A2984 RMK SLP138
BTI PABA Barter Island Lrrs, US Barter Island LRRS Airport 4 1.75 -3/-3 30.05 PABA 250752Z 30004KT 1 3/4SM -SN BR BKN023 OVC028 M03/M04 A3005 RMK AO2 SLP183 T10331039 FZRANO
YVP CYVP Kuujjuaq, CA Kuujjuaq Airport 3 3 -2/-3 30.06 CYVP 250737Z 35003KT 3SM -SN BR OVC008 M02/M03 A3006 RMK SN1ST7 SLP185

Station
 
Location
 
Name
 
Wind
Knots
Gust
Knots
Vis
SM
Temp/Dew
C
Baro
inHg
METAR
 
YCY CYCY Clyde River, CA Clyde River Airport 2 9 -6/-6 29.99 CYCY 250752Z AUTO VRB02KT 9SM -SN BKN007 OVC027 M06/M06 A2999 RMK SLP159
YUX CYUX Hall Beach, CA Hall Beach Airport 0 1.75 0/-1 29.91 CYUX 250750Z AUTO 00000KT 1 3/4SM -SN BKN016 OVC024 M00/M01 A2991 RMK VIS VRB 1-3 SLP132